sensor_id;sensor_type;location;lat;lon;timestamp;pressure;altitude;pressure_sealevel;temperature;humidity
57572;BME280;44459;43.522;24.470;2023-07-13T00:01:15;100081.53;;;23.90;100.00
57572;BME280;44459;43.522;24.470;2023-07-13T00:03:41;100088.81;;;23.88;100.00
57572;BME280;44459;43.522;24.470;2023-07-13T00:06:07;100079.78;;;23.89;100.00
57572;BME280;44459;43.522;24.470;2023-07-13T00:08:34;100085.19;;;23.89;100.00
57572;BME280;44459;43.522;24.470;2023-07-13T00:11:00;100087.97;;;23.88;100.00
57572;BME280;44459;43.522;24.470;2023-07-13T00:13:26;100089.63;;;23.90;100.00
57572;BME280;44459;43.522;24.470;2023-07-13T00:15:52;100077.41;;;23.83;100.00
57572;BME280;44459;43.522;24.470;2023-07-13T00:18:19;100081.97;;;23.81;100.00
57572;BME280;44459;43.522;24.470;2023-07-13T00:20:45;100089.22;;;23.81;100.00
57572;BME280;44459;43.522;24.470;2023-07-13T00:23:10;100087.53;;;23.78;100.00
57572;BME280;44459;43.522;24.470;2023-07-13T00:25:35;100082.13;;;23.78;100.00
57572;BME280;44459;43.522;24.470;2023-07-13T00:28:02;100080.47;;;23.76;100.00
57572;BME280;44459;43.522;24.470;2023-07-13T00:30:27;100076.28;;;23.70;100.00
57572;BME280;44459;43.522;24.470;2023-07-13T00:32:53;100074.84;;;23.63;100.00
57572;BME280;44459;43.522;24.470;2023-07-13T00:35:18;100075.13;;;23.57;100.00
57572;BME280;44459;43.522;24.470;2023-07-13T00:37:44;100071.88;;;23.50;100.00
57572;BME280;44459;43.522;24.470;2023-07-13T00:40:12;100067.66;;;23.45;100.00
57572;BME280;44459;43.522;24.470;2023-07-13T00:42:39;100065.91;;;23.44;100.00
57572;BME280;44459;43.522;24.470;2023-07-13T00:47:50;100057.75;;;23.45;100.00
57572;BME280;44459;43.522;24.470;2023-07-13T00:50:16;100059.72;;;23.42;100.00
57572;BME280;44459;43.522;24.470;2023-07-13T00:52:46;100060.72;;;23.39;100.00
57572;BME280;44459;43.522;24.470;2023-07-13T00:55:14;100062.75;;;23.34;100.00
57572;BME280;44459;43.522;24.470;2023-07-13T00:57:41;100067.38;;;23.32;100.00
57572;BME280;44459;43.522;24.470;2023-07-13T01:00:07;100064.66;;;23.32;100.00
57572;BME280;44459;43.522;24.470;2023-07-13T01:02:37;100051.25;;;23.31;100.00
57572;BME280;44459;43.522;24.470;2023-07-13T01:05:23;100063.69;;;23.33;100.00
57572;BME280;44459;43.522;24.470;2023-07-13T01:07:50;100063.69;;;23.33;100.00
57572;BME280;44459;43.522;24.470;2023-07-13T01:10:18;100062.09;;;23.29;100.00
57572;BME280;44459;43.522;24.470;2023-07-13T01:12:46;100054.31;;;23.23;100.00
57572;BME280;44459;43.522;24.470;2023-07-13T01:15:41;100061.63;;;23.21;100.00
57572;BME280;44459;43.522;24.470;2023-07-13T01:18:10;100057.31;;;23.17;100.00
57572;BME280;44459;43.522;24.470;2023-07-13T01:20:37;100059.28;;;23.14;100.00
57572;BME280;44459;43.522;24.470;2023-07-13T01:23:04;100051.50;;;23.08;100.00
57572;BME280;44459;43.522;24.470;2023-07-13T01:25:31;100064.97;;;23.08;100.00
57572;BME280;44459;43.522;24.470;2023-07-13T01:27:57;100067.81;;;23.04;100.00
57572;BME280;44459;43.522;24.470;2023-07-13T01:30:23;100056.38;;;22.99;100.00
57572;BME280;44459;43.522;24.470;2023-07-13T01:32:48;100048.59;;;22.93;100.00
57572;BME280;44459;43.522;24.470;2023-07-13T01:35:13;100063.00;;;22.92;100.00
57572;BME280;44459;43.522;24.470;2023-07-13T01:37:39;100057.63;;;22.92;100.00
57572;BME280;44459;43.522;24.470;2023-07-13T01:40:05;100054.97;;;22.91;100.00
57572;BME280;44459;43.522;24.470;2023-07-13T01:42:31;100061.25;;;22.91;100.00
57572;BME280;44459;43.522;24.470;2023-07-13T01:44:56;100056.00;;;22.88;100.00
57572;BME280;44459;43.522;24.470;2023-07-13T01:47:23;100061.69;;;22.82;100.00
57572;BME280;44459;43.522;24.470;2023-07-13T01:49:48;100058.22;;;22.80;100.00
57572;BME280;44459;43.522;24.470;2023-07-13T01:52:15;100062.84;;;22.77;100.00
57572;BME280;44459;43.522;24.470;2023-07-13T01:54:40;100067.38;;;22.76;100.00
57572;BME280;44459;43.522;24.470;2023-07-13T01:57:06;100065.91;;;22.69;100.00
57572;BME280;44459;43.522;24.470;2023-07-13T01:59:31;100070.66;;;22.63;100.00
57572;BME280;44459;43.522;24.470;2023-07-13T02:01:58;100067.38;;;22.56;100.00
57572;BME280;44459;43.522;24.470;2023-07-13T02:04:24;100075.56;;;22.53;100.00
57572;BME280;44459;43.522;24.470;2023-07-13T02:06:49;100067.63;;;22.50;100.00
57572;BME280;44459;43.522;24.470;2023-07-13T02:09:14;100075.66;;;22.51;100.00
57572;BME280;44459;43.522;24.470;2023-07-13T02:11:40;100072.94;;;22.51;100.00
57572;BME280;44459;43.522;24.470;2023-07-13T02:14:05;100078.25;;;22.53;100.00
57572;BME280;44459;43.522;24.470;2023-07-13T02:16:31;100073.34;;;22.42;100.00
57572;BME280;44459;43.522;24.470;2023-07-13T02:18:56;100078.53;;;22.47;100.00
57572;BME280;44459;43.522;24.470;2023-07-13T02:21:23;100076.13;;;22.41;100.00
57572;BME280;44459;43.522;24.470;2023-07-13T02:23:49;100074.50;;;22.37;100.00
57572;BME280;44459;43.522;24.470;2023-07-13T02:26:15;100070.00;;;22.37;100.00
57572;BME280;44459;43.522;24.470;2023-07-13T02:28:40;100069.19;;;22.35;100.00
57572;BME280;44459;43.522;24.470;2023-07-13T02:31:11;100080.56;;;22.42;100.00
57572;BME280;44459;43.522;24.470;2023-07-13T02:33:37;100075.25;;;22.40;100.00
57572;BME280;44459;43.522;24.470;2023-07-13T02:36:03;100078.88;;;22.39;100.00
57572;BME280;44459;43.522;24.470;2023-07-13T02:38:31;100079.59;;;22.43;100.00
57572;BME280;44459;43.522;24.470;2023-07-13T02:41:00;100068.25;;;22.36;100.00
57572;BME280;44459;43.522;24.470;2023-07-13T02:43:26;100072.75;;;22.36;100.00
57572;BME280;44459;43.522;24.470;2023-07-13T02:45:52;100073.88;;;22.32;100.00
57572;BME280;44459;43.522;24.470;2023-07-13T02:48:18;100084.34;;;22.38;100.00
57572;BME280;44459;43.522;24.470;2023-07-13T02:50:44;100086.06;;;22.39;100.00
57572;BME280;44459;43.522;24.470;2023-07-13T02:53:10;100085.41;;;22.34;100.00
57572;BME280;44459;43.522;24.470;2023-07-13T02:55:36;100083.47;;;22.37;100.00
57572;BME280;44459;43.522;24.470;2023-07-13T02:58:01;100081.78;;;22.35;100.00
57572;BME280;44459;43.522;24.470;2023-07-13T03:00:27;100083.38;;;22.39;100.00
57572;BME280;44459;43.522;24.470;2023-07-13T03:02:53;100080.63;;;22.40;100.00
57572;BME280;44459;43.522;24.470;2023-07-13T03:05:22;100076.31;;;22.36;100.00
57572;BME280;44459;43.522;24.470;2023-07-13T03:07:47;100084.38;;;22.36;100.00
57572;BME280;44459;43.522;24.470;2023-07-13T03:10:13;100078.88;;;22.39;100.00
57572;BME280;44459;43.522;24.470;2023-07-13T03:12:38;100074.56;;;22.35;100.00
57572;BME280;44459;43.522;24.470;2023-07-13T03:15:04;100083.31;;;22.40;100.00
57572;BME280;44459;43.522;24.470;2023-07-13T03:17:29;100085.28;;;22.37;100.00
57572;BME280;44459;43.522;24.470;2023-07-13T03:19:55;100088.88;;;22.36;100.00
57572;BME280;44459;43.522;24.470;2023-07-13T03:22:20;100090.00;;;22.32;100.00
57572;BME280;44459;43.522;24.470;2023-07-13T03:24:46;100088.28;;;22.29;100.00
57572;BME280;44459;43.522;24.470;2023-07-13T03:27:12;100093.41;;;22.35;100.00
57572;BME280;44459;43.522;24.470;2023-07-13T03:29:38;100098.84;;;22.34;100.00
57572;BME280;44459;43.522;24.470;2023-07-13T03:32:04;100105.56;;;22.44;100.00
57572;BME280;44459;43.522;24.470;2023-07-13T03:34:30;100102.75;;;22.47;100.00
57572;BME280;44459;43.522;24.470;2023-07-13T03:36:56;100106.72;;;22.58;100.00
57572;BME280;44459;43.522;24.470;2023-07-13T03:39:22;100108.59;;;22.56;100.00
57572;BME280;44459;43.522;24.470;2023-07-13T03:41:48;100108.19;;;22.66;100.00
57572;BME280;44459;43.522;24.470;2023-07-13T03:44:15;100107.94;;;22.72;100.00
57572;BME280;44459;43.522;24.470;2023-07-13T03:46:41;100111.06;;;22.81;100.00
57572;BME280;44459;43.522;24.470;2023-07-13T03:49:06;100109.69;;;22.91;100.00
57572;BME280;44459;43.522;24.470;2023-07-13T03:51:32;100111.91;;;23.02;100.00
57572;BME280;44459;43.522;24.470;2023-07-13T03:53:57;100104.03;;;23.16;100.00
57572;BME280;44459;43.522;24.470;2023-07-13T03:56:23;100100.25;;;23.20;100.00
57572;BME280;44459;43.522;24.470;2023-07-13T03:58:49;100103.22;;;23.33;100.00
57572;BME280;44459;43.522;24.470;2023-07-13T04:01:17;100097.44;;;23.42;100.00
57572;BME280;44459;43.522;24.470;2023-07-13T04:03:44;100102.16;;;23.55;100.00
57572;BME280;44459;43.522;24.470;2023-07-13T04:06:23;100101.78;;;23.63;100.00
57572;BME280;44459;43.522;24.470;2023-07-13T04:08:53;100103.09;;;23.73;100.00
57572;BME280;44459;43.522;24.470;2023-07-13T04:11:21;100107.06;;;23.83;100.00
57572;BME280;44459;43.522;24.470;2023-07-13T04:13:48;100108.19;;;23.96;100.00
57572;BME280;44459;43.522;24.470;2023-07-13T04:16:15;100117.31;;;24.11;100.00
57572;BME280;44459;43.522;24.470;2023-07-13T04:18:40;100104.09;;;24.24;99.67
57572;BME280;44459;43.522;24.470;2023-07-13T04:21:06;100112.69;;;24.32;98.75
57572;BME280;44459;43.522;24.470;2023-07-13T04:23:32;100119.16;;;24.45;97.29
57572;BME280;44459;43.522;24.470;2023-07-13T04:25:57;100119.31;;;24.59;97.63
57572;BME280;44459;43.522;24.470;2023-07-13T04:28:24;100109.69;;;24.71;96.84
57572;BME280;44459;43.522;24.470;2023-07-13T04:30:50;100109.88;;;24.85;96.38
57572;BME280;44459;43.522;24.470;2023-07-13T04:33:16;100113.38;;;25.02;95.05
57572;BME280;44459;43.522;24.470;2023-07-13T04:35:52;100115.16;;;25.19;94.08
57572;BME280;44459;43.522;24.470;2023-07-13T04:38:20;100112.63;;;25.32;93.37
57572;BME280;44459;43.522;24.470;2023-07-13T04:40:47;100117.16;;;25.47;92.10
57572;BME280;44459;43.522;24.470;2023-07-13T04:43:13;100115.44;;;25.62;91.00
57572;BME280;44459;43.522;24.470;2023-07-13T04:45:38;100110.97;;;25.76;90.39
57572;BME280;44459;43.522;24.470;2023-07-13T04:48:04;100128.91;;;25.93;91.79
57572;BME280;44459;43.522;24.470;2023-07-13T04:50:29;100124.94;;;26.14;90.42
57572;BME280;44459;43.522;24.470;2023-07-13T04:52:55;100120.50;;;26.29;89.38
57572;BME280;44459;43.522;24.470;2023-07-13T04:55:20;100122.09;;;26.47;87.44
57572;BME280;44459;43.522;24.470;2023-07-13T04:57:47;100118.16;;;26.67;84.97
57572;BME280;44459;43.522;24.470;2023-07-13T05:00:13;100115.56;;;26.79;86.95
57572;BME280;44459;43.522;24.470;2023-07-13T05:02:43;100116.25;;;26.97;83.37
57572;BME280;44459;43.522;24.470;2023-07-13T05:05:09;100115.78;;;27.19;82.04
57572;BME280;44459;43.522;24.470;2023-07-13T05:07:35;100119.94;;;27.38;81.91
57572;BME280;44459;43.522;24.470;2023-07-13T05:10:00;100116.16;;;27.55;79.30
57572;BME280;44459;43.522;24.470;2023-07-13T05:12:26;100117.06;;;27.68;76.28
57572;BME280;44459;43.522;24.470;2023-07-13T05:14:52;100115.75;;;27.88;75.67
57572;BME280;44459;43.522;24.470;2023-07-13T05:17:17;100120.91;;;28.05;76.59
57572;BME280;44459;43.522;24.470;2023-07-13T05:19:43;100118.06;;;28.21;75.64
57572;BME280;44459;43.522;24.470;2023-07-13T05:22:08;100127.31;;;28.43;75.38
57572;BME280;44459;43.522;24.470;2023-07-13T05:24:34;100127.03;;;28.61;73.21
57572;BME280;44459;43.522;24.470;2023-07-13T05:26:59;100129.69;;;28.75;71.08
57572;BME280;44459;43.522;24.470;2023-07-13T05:29:25;100135.13;;;28.87;70.52
57572;BME280;44459;43.522;24.470;2023-07-13T05:31:50;100133.06;;;29.04;69.32
57572;BME280;44459;43.522;24.470;2023-07-13T05:34:16;100126.63;;;29.17;67.04
57572;BME280;44459;43.522;24.470;2023-07-13T05:36:41;100139.34;;;29.42;70.16
57572;BME280;44459;43.522;24.470;2023-07-13T05:39:07;100135.28;;;29.60;68.44
57572;BME280;44459;43.522;24.470;2023-07-13T05:41:32;100137.31;;;29.69;66.37
57572;BME280;44459;43.522;24.470;2023-07-13T05:43:58;100138.56;;;29.89;67.07
57572;BME280;44459;43.522;24.470;2023-07-13T05:46:24;100150.69;;;30.09;66.69
57572;BME280;44459;43.522;24.470;2023-07-13T05:48:49;100149.09;;;30.17;64.34
57572;BME280;44459;43.522;24.470;2023-07-13T05:51:14;100150.50;;;30.23;65.64
57572;BME280;44459;43.522;24.470;2023-07-13T05:53:40;100152.34;;;30.46;66.60
57572;BME280;44459;43.522;24.470;2023-07-13T05:56:05;100160.34;;;30.60;64.85
57572;BME280;44459;43.522;24.470;2023-07-13T05:58:31;100150.97;;;30.75;64.06
57572;BME280;44459;43.522;24.470;2023-07-13T06:01:04;100147.41;;;30.97;61.81
57572;BME280;44459;43.522;24.470;2023-07-13T06:03:30;100148.56;;;31.17;59.91
57572;BME280;44459;43.522;24.470;2023-07-13T06:05:56;100156.13;;;31.24;57.52
57572;BME280;44459;43.522;24.470;2023-07-13T06:08:22;100162.59;;;31.23;57.01
57572;BME280;44459;43.522;24.470;2023-07-13T06:10:47;100157.72;;;31.38;56.64
57572;BME280;44459;43.522;24.470;2023-07-13T06:13:13;100166.56;;;31.30;57.33
57572;BME280;44459;43.522;24.470;2023-07-13T06:15:38;100168.78;;;31.36;57.86
57572;BME280;44459;43.522;24.470;2023-07-13T06:18:04;100171.38;;;31.38;55.02
57572;BME280;44459;43.522;24.470;2023-07-13T06:20:29;100173.88;;;31.41;52.69
57572;BME280;44459;43.522;24.470;2023-07-13T06:22:54;100182.44;;;31.48;52.61
57572;BME280;44459;43.522;24.470;2023-07-13T06:25:20;100170.28;;;31.63;53.15
57572;BME280;44459;43.522;24.470;2023-07-13T06:27:45;100178.81;;;31.80;52.79
57572;BME280;44459;43.522;24.470;2023-07-13T06:30:11;100176.59;;;31.74;52.55
57572;BME280;44459;43.522;24.470;2023-07-13T06:32:37;100181.03;;;32.09;53.30
57572;BME280;44459;43.522;24.470;2023-07-13T06:35:03;100173.28;;;32.46;52.83
57572;BME280;44459;43.522;24.470;2023-07-13T06:37:29;100167.94;;;32.55;51.21
57572;BME280;44459;43.522;24.470;2023-07-13T06:39:54;100172.09;;;32.70;51.11
57572;BME280;44459;43.522;24.470;2023-07-13T06:42:19;100166.56;;;32.81;49.64
57572;BME280;44459;43.522;24.470;2023-07-13T06:44:45;100162.22;;;33.00;51.54
57572;BME280;44459;43.522;24.470;2023-07-13T06:47:10;100154.69;;;33.13;48.56
57572;BME280;44459;43.522;24.470;2023-07-13T06:49:36;100155.00;;;33.19;47.61
57572;BME280;44459;43.522;24.470;2023-07-13T06:52:02;100151.19;;;33.31;46.33
57572;BME280;44459;43.522;24.470;2023-07-13T06:54:27;100152.66;;;33.35;45.47
57572;BME280;44459;43.522;24.470;2023-07-13T06:56:52;100158.78;;;33.58;45.88
57572;BME280;44459;43.522;24.470;2023-07-13T06:59:19;100147.19;;;33.75;47.17
57572;BME280;44459;43.522;24.470;2023-07-13T07:01:44;100145.78;;;33.91;42.86
57572;BME280;44459;43.522;24.470;2023-07-13T07:04:10;100147.50;;;33.92;44.74
57572;BME280;44459;43.522;24.470;2023-07-13T07:06:35;100147.25;;;33.95;42.75
57572;BME280;44459;43.522;24.470;2023-07-13T07:09:01;100143.34;;;33.97;44.15
57572;BME280;44459;43.522;24.470;2023-07-13T07:11:26;100136.03;;;34.26;42.94
57572;BME280;44459;43.522;24.470;2023-07-13T07:13:52;100147.28;;;34.52;44.36
57572;BME280;44459;43.522;24.470;2023-07-13T07:16:19;100145.59;;;34.70;46.20
57572;BME280;44459;43.522;24.470;2023-07-13T07:18:45;100142.50;;;34.83;43.45
57572;BME280;44459;43.522;24.470;2023-07-13T07:21:10;100156.78;;;34.96;43.07
57572;BME280;44459;43.522;24.470;2023-07-13T07:23:36;100149.81;;;35.21;44.77
57572;BME280;44459;43.522;24.470;2023-07-13T07:26:02;100149.56;;;35.42;41.66
57572;BME280;44459;43.522;24.470;2023-07-13T07:28:28;100152.28;;;35.51;43.26
57572;BME280;44459;43.522;24.470;2023-07-13T07:30:57;100149.06;;;35.65;42.93
57572;BME280;44459;43.522;24.470;2023-07-13T07:33:24;100145.91;;;35.88;44.91
57572;BME280;44459;43.522;24.470;2023-07-13T07:35:50;100146.59;;;35.90;41.45
57572;BME280;44459;43.522;24.470;2023-07-13T07:38:16;100141.78;;;35.74;38.04
57572;BME280;44459;43.522;24.470;2023-07-13T07:40:42;100142.53;;;35.94;39.77
57572;BME280;44459;43.522;24.470;2023-07-13T07:43:09;100146.78;;;36.06;40.19
57572;BME280;44459;43.522;24.470;2023-07-13T07:45:35;100148.16;;;36.19;40.81
57572;BME280;44459;43.522;24.470;2023-07-13T07:48:01;100150.06;;;36.37;40.58
57572;BME280;44459;43.522;24.470;2023-07-13T07:50:27;100144.16;;;36.67;42.27
57572;BME280;44459;43.522;24.470;2023-07-13T07:52:53;100150.59;;;36.75;41.24
57572;BME280;44459;43.522;24.470;2023-07-13T07:55:21;100141.06;;;36.70;37.96
57572;BME280;44459;43.522;24.470;2023-07-13T07:57:47;100143.09;;;36.86;42.47
57572;BME280;44459;43.522;24.470;2023-07-13T08:00:12;100134.84;;;36.86;38.65
57572;BME280;44459;43.522;24.470;2023-07-13T08:02:38;100133.47;;;36.64;37.61
57572;BME280;44459;43.522;24.470;2023-07-13T08:05:04;100126.91;;;36.83;39.48
57572;BME280;44459;43.522;24.470;2023-07-13T08:07:32;100128.69;;;36.92;38.22
57572;BME280;44459;43.522;24.470;2023-07-13T08:09:57;100115.56;;;37.03;40.86
57572;BME280;44459;43.522;24.470;2023-07-13T08:12:23;100125.31;;;37.23;39.36
57572;BME280;44459;43.522;24.470;2023-07-13T08:14:52;100130.03;;;37.39;35.94
57572;BME280;44459;43.522;24.470;2023-07-13T08:17:19;100121.16;;;37.19;36.18
57572;BME280;44459;43.522;24.470;2023-07-13T08:19:45;100116.28;;;36.88;35.74
57572;BME280;44459;43.522;24.470;2023-07-13T08:22:11;100125.13;;;36.73;36.08
57572;BME280;44459;43.522;24.470;2023-07-13T08:24:36;100117.63;;;36.83;35.06
57572;BME280;44459;43.522;24.470;2023-07-13T08:27:02;100115.63;;;36.94;39.62
57572;BME280;44459;43.522;24.470;2023-07-13T08:29:27;100115.44;;;37.13;37.59
57572;BME280;44459;43.522;24.470;2023-07-13T08:31:52;100121.13;;;37.45;38.26
57572;BME280;44459;43.522;24.470;2023-07-13T08:34:19;100126.34;;;37.48;37.19
57572;BME280;44459;43.522;24.470;2023-07-13T08:36:45;100117.44;;;37.70;36.02
57572;BME280;44459;43.522;24.470;2023-07-13T08:39:10;100128.16;;;37.82;35.93
57572;BME280;44459;43.522;24.470;2023-07-13T08:41:36;100129.19;;;37.72;34.17
57572;BME280;44459;43.522;24.470;2023-07-13T08:44:03;100136.69;;;37.54;33.76
57572;BME280;44459;43.522;24.470;2023-07-13T08:46:37;100140.34;;;37.37;33.71
57572;BME280;44459;43.522;24.470;2023-07-13T08:49:17;100133.38;;;37.51;36.01
57572;BME280;44459;43.522;24.470;2023-07-13T08:51:57;100139.34;;;37.72;36.98
57572;BME280;44459;43.522;24.470;2023-07-13T08:54:35;100145.00;;;37.70;38.96
57572;BME280;44459;43.522;24.470;2023-07-13T08:57:09;100143.53;;;37.50;33.26
57572;BME280;44459;43.522;24.470;2023-07-13T08:59:35;100139.91;;;37.50;34.64
57572;BME280;44459;43.522;24.470;2023-07-13T09:05:10;100141.75;;;37.41;33.14
57572;BME280;44459;43.522;24.470;2023-07-13T09:10:23;100137.84;;;37.86;33.00
57572;BME280;44459;43.522;24.470;2023-07-13T09:15:39;100139.16;;;37.40;33.94
57572;BME280;44459;43.522;24.470;2023-07-13T09:18:13;100135.91;;;37.44;34.22
57572;BME280;44459;43.522;24.470;2023-07-13T09:20:55;100128.06;;;37.57;36.12
57572;BME280;44459;43.522;24.470;2023-07-13T09:23:24;100129.63;;;37.94;37.45
57572;BME280;44459;43.522;24.470;2023-07-13T09:26:10;100141.25;;;37.46;33.56
57572;BME280;44459;43.522;24.470;2023-07-13T09:28:49;100139.59;;;37.53;33.90
57572;BME280;44459;43.522;24.470;2023-07-13T09:31:26;100141.66;;;37.51;33.49
57572;BME280;44459;43.522;24.470;2023-07-13T09:33:54;100133.97;;;37.37;32.46
57572;BME280;44459;43.522;24.470;2023-07-13T09:36:21;100132.91;;;37.55;37.76
57572;BME280;44459;43.522;24.470;2023-07-13T09:39:24;100130.84;;;37.57;35.58
57572;BME280;44459;43.522;24.470;2023-07-13T09:42:07;100133.81;;;37.72;37.02
57572;BME280;44459;43.522;24.470;2023-07-13T09:44:52;100135.28;;;37.50;33.72
57572;BME280;44459;43.522;24.470;2023-07-13T09:47:21;100136.09;;;37.85;34.18
57572;BME280;44459;43.522;24.470;2023-07-13T09:49:54;100132.38;;;37.94;34.25
57572;BME280;44459;43.522;24.470;2023-07-13T09:52:20;100140.59;;;37.86;33.41
57572;BME280;44459;43.522;24.470;2023-07-13T09:54:49;100144.69;;;37.82;33.22
57572;BME280;44459;43.522;24.470;2023-07-13T09:57:17;100139.78;;;38.01;34.99
57572;BME280;44459;43.522;24.470;2023-07-13T09:59:48;100143.69;;;37.91;32.46
57572;BME280;44459;43.522;24.470;2023-07-13T10:04:56;100129.28;;;38.05;33.29
57572;BME280;44459;43.522;24.470;2023-07-13T10:07:23;100128.25;;;38.06;34.33
57572;BME280;44459;43.522;24.470;2023-07-13T10:09:56;100128.22;;;37.98;35.34
57572;BME280;44459;43.522;24.470;2023-07-13T10:12:22;100122.72;;;37.98;32.11
57572;BME280;44459;43.522;24.470;2023-07-13T10:14:55;100105.16;;;38.15;31.13
57572;BME280;44459;43.522;24.470;2023-07-13T10:17:31;100114.81;;;38.19;32.36
57572;BME280;44459;43.522;24.470;2023-07-13T10:20:03;100102.41;;;38.15;32.70
57572;BME280;44459;43.522;24.470;2023-07-13T10:22:37;100096.72;;;38.00;32.02
57572;BME280;44459;43.522;24.470;2023-07-13T10:25:25;100105.69;;;38.18;35.74
57572;BME280;44459;43.522;24.470;2023-07-13T10:27:53;100094.84;;;38.17;33.36
57572;BME280;44459;43.522;24.470;2023-07-13T10:30:39;100095.50;;;38.03;32.49
57572;BME280;44459;43.522;24.470;2023-07-13T10:33:10;100092.25;;;38.15;34.42
57572;BME280;44459;43.522;24.470;2023-07-13T10:35:39;100088.28;;;38.26;35.17
57572;BME280;44459;43.522;24.470;2023-07-13T10:38:10;100094.66;;;38.26;32.12
57572;BME280;44459;43.522;24.470;2023-07-13T10:40:39;100089.31;;;38.17;33.20
57572;BME280;44459;43.522;24.470;2023-07-13T10:43:29;100078.59;;;37.98;32.48
57572;BME280;44459;43.522;24.470;2023-07-13T10:45:59;100074.84;;;38.23;34.07
57572;BME280;44459;43.522;24.470;2023-07-13T10:48:26;100079.66;;;38.37;33.04
57572;BME280;44459;43.522;24.470;2023-07-13T10:50:53;100069.53;;;38.46;32.15
57572;BME280;44459;43.522;24.470;2023-07-13T10:53:30;100072.94;;;38.72;36.09
57572;BME280;44459;43.522;24.470;2023-07-13T10:56:29;100069.88;;;38.83;31.22
57572;BME280;44459;43.522;24.470;2023-07-13T10:59:24;100066.59;;;38.88;30.95
57572;BME280;44459;43.522;24.470;2023-07-13T11:02:00;100057.09;;;38.50;30.70
57572;BME280;44459;43.522;24.470;2023-07-13T11:04:46;100053.63;;;38.64;30.88
57572;BME280;44459;43.522;24.470;2023-07-13T11:07:27;100035.38;;;38.63;30.84
57572;BME280;44459;43.522;24.470;2023-07-13T11:09:56;100039.88;;;38.56;29.63
57572;BME280;44459;43.522;24.470;2023-07-13T11:17:46;100027.59;;;38.58;29.17
57572;BME280;44459;43.522;24.470;2023-07-13T11:22:46;100016.91;;;38.55;28.81
57572;BME280;44459;43.522;24.470;2023-07-13T11:30:40;100003.25;;;38.86;29.40
57572;BME280;44459;43.522;24.470;2023-07-13T11:36:03;100002.38;;;39.24;31.30
57572;BME280;44459;43.522;24.470;2023-07-13T11:38:39;99999.28;;;39.28;28.19
57572;BME280;44459;43.522;24.470;2023-07-13T11:41:14;99997.66;;;39.41;30.97
57572;BME280;44459;43.522;24.470;2023-07-13T11:43:40;99995.41;;;39.45;27.65
57572;BME280;44459;43.522;24.470;2023-07-13T11:46:34;99984.06;;;39.62;30.09
57572;BME280;44459;43.522;24.470;2023-07-13T11:48:58;99995.97;;;39.63;30.29
57572;BME280;44459;43.522;24.470;2023-07-13T11:51:32;99989.97;;;39.59;26.63
57572;BME280;44459;43.522;24.470;2023-07-13T11:54:02;99987.56;;;39.56;30.83
57572;BME280;44459;43.522;24.470;2023-07-13T11:56:29;99993.50;;;39.45;27.32
57572;BME280;44459;43.522;24.470;2023-07-13T11:58:56;99994.59;;;39.36;27.10
57572;BME280;44459;43.522;24.470;2023-07-13T12:01:28;99996.34;;;39.60;27.90
57572;BME280;44459;43.522;24.470;2023-07-13T12:03:59;99991.03;;;39.50;27.15
57572;BME280;44459;43.522;24.470;2023-07-13T12:06:32;99987.84;;;39.61;27.49
57572;BME280;44459;43.522;24.470;2023-07-13T12:09:00;99990.69;;;39.53;24.31
57572;BME280;44459;43.522;24.470;2023-07-13T12:11:26;99992.63;;;39.45;27.31
57572;BME280;44459;43.522;24.470;2023-07-13T12:13:52;99984.19;;;39.46;28.88
57572;BME280;44459;43.522;24.470;2023-07-13T12:18:47;99979.56;;;39.61;28.87
57572;BME280;44459;43.522;24.470;2023-07-13T12:21:17;99986.44;;;39.73;28.02
57572;BME280;44459;43.522;24.470;2023-07-13T12:23:44;99984.94;;;39.86;29.86
57572;BME280;44459;43.522;24.470;2023-07-13T12:26:12;99981.63;;;39.90;26.78
57572;BME280;44459;43.522;24.470;2023-07-13T12:28:59;99981.19;;;39.79;28.01
57572;BME280;44459;43.522;24.470;2023-07-13T12:31:36;99984.56;;;39.89;29.17
57572;BME280;44459;43.522;24.470;2023-07-13T12:36:34;99972.16;;;40.07;27.02
57572;BME280;44459;43.522;24.470;2023-07-13T12:39:24;99970.31;;;40.22;29.02
57572;BME280;44459;43.522;24.470;2023-07-13T12:41:52;99970.06;;;40.32;26.53
57572;BME280;44459;43.522;24.470;2023-07-13T12:44:27;99967.47;;;40.08;27.00
57572;BME280;44459;43.522;24.470;2023-07-13T12:46:56;99972.97;;;39.93;26.37
57572;BME280;44459;43.522;24.470;2023-07-13T12:49:30;99974.69;;;39.71;24.25
57572;BME280;44459;43.522;24.470;2023-07-13T12:52:00;99968.34;;;39.86;27.39
57572;BME280;44459;43.522;24.470;2023-07-13T12:54:26;99969.22;;;39.86;24.93
57572;BME280;44459;43.522;24.470;2023-07-13T12:56:53;99965.41;;;39.87;25.92
57572;BME280;44459;43.522;24.470;2023-07-13T12:59:22;99961.72;;;39.95;24.07
57572;BME280;44459;43.522;24.470;2023-07-13T13:01:48;99960.75;;;39.88;25.95
57572;BME280;44459;43.522;24.470;2023-07-13T13:04:15;99958.75;;;39.96;27.98
57572;BME280;44459;43.522;24.470;2023-07-13T13:06:41;99946.59;;;40.05;26.79
57572;BME280;44459;43.522;24.470;2023-07-13T13:09:13;99949.16;;;40.07;25.43
57572;BME280;44459;43.522;24.470;2023-07-13T13:11:40;99943.50;;;40.00;26.59
57572;BME280;44459;43.522;24.470;2023-07-13T13:14:06;99944.38;;;40.01;29.50
57572;BME280;44459;43.522;24.470;2023-07-13T13:16:35;99945.13;;;40.17;27.19
57572;BME280;44459;43.522;24.470;2023-07-13T13:19:13;99935.47;;;40.13;27.66